sensor_id;sensor_type;location;lat;lon;timestamp;P1;durP1;ratioP1;P2;durP2;ratioP2
50683;SDS011;36654;45.042;38.994;2024-03-25T00:00:12;11.13;;;5.50;;
50683;SDS011;36654;45.042;38.994;2024-03-25T00:02:40;7.38;;;4.72;;
50683;SDS011;36654;45.042;38.994;2024-03-25T00:05:07;9.52;;;4.85;;
50683;SDS011;36654;45.042;38.994;2024-03-25T00:07:39;8.52;;;5.43;;
50683;SDS011;36654;45.042;38.994;2024-03-25T00:10:05;10.43;;;5.30;;
50683;SDS011;36654;45.042;38.994;2024-03-25T00:12:33;11.73;;;5.53;;
50683;SDS011;36654;45.042;38.994;2024-03-25T00:14:59;12.18;;;5.53;;
50683;SDS011;36654;45.042;38.994;2024-03-25T00:17:25;8.80;;;5.47;;
50683;SDS011;36654;45.042;38.994;2024-03-25T00:19:51;11.40;;;5.97;;
50683;SDS011;36654;45.042;38.994;2024-03-25T00:22:17;10.98;;;6.43;;
50683;SDS011;36654;45.042;38.994;2024-03-25T00:24:44;8.18;;;5.45;;
50683;SDS011;36654;45.042;38.994;2024-03-25T00:27:11;10.90;;;6.55;;
50683;SDS011;36654;45.042;38.994;2024-03-25T00:29:37;12.27;;;6.93;;
50683;SDS011;36654;45.042;38.994;2024-03-25T00:32:02;13.95;;;6.88;;
50683;SDS011;36654;45.042;38.994;2024-03-25T00:34:28;12.85;;;7.18;;
50683;SDS011;36654;45.042;38.994;2024-03-25T00:36:54;11.88;;;6.45;;
50683;SDS011;36654;45.042;38.994;2024-03-25T00:39:20;13.07;;;7.63;;
50683;SDS011;36654;45.042;38.994;2024-03-25T00:41:47;11.52;;;6.88;;
50683;SDS011;36654;45.042;38.994;2024-03-25T00:44:12;13.02;;;7.38;;
50683;SDS011;36654;45.042;38.994;2024-03-25T00:46:39;11.38;;;7.60;;
50683;SDS011;36654;45.042;38.994;2024-03-25T00:49:07;15.32;;;7.72;;
50683;SDS011;36654;45.042;38.994;2024-03-25T00:51:33;13.38;;;7.80;;
50683;SDS011;36654;45.042;38.994;2024-03-25T00:53:59;13.13;;;7.65;;
50683;SDS011;36654;45.042;38.994;2024-03-25T00:56:24;15.15;;;7.68;;
50683;SDS011;36654;45.042;38.994;2024-03-25T00:58:51;13.95;;;7.97;;
50683;SDS011;36654;45.042;38.994;2024-03-25T01:01:16;12.90;;;8.07;;
50683;SDS011;36654;45.042;38.994;2024-03-25T01:03:43;14.75;;;7.75;;
50683;SDS011;36654;45.042;38.994;2024-03-25T01:06:09;12.93;;;7.60;;
50683;SDS011;36654;45.042;38.994;2024-03-25T01:08:36;16.10;;;8.43;;
50683;SDS011;36654;45.042;38.994;2024-03-25T01:11:02;14.73;;;8.43;;
50683;SDS011;36654;45.042;38.994;2024-03-25T01:13:27;13.35;;;7.78;;
50683;SDS011;36654;45.042;38.994;2024-03-25T01:15:54;13.25;;;8.25;;
50683;SDS011;36654;45.042;38.994;2024-03-25T01:18:20;13.43;;;7.70;;
50683;SDS011;36654;45.042;38.994;2024-03-25T01:20:47;12.40;;;8.35;;
50683;SDS011;36654;45.042;38.994;2024-03-25T01:23:14;14.15;;;7.68;;
50683;SDS011;36654;45.042;38.994;2024-03-25T01:25:40;16.27;;;8.73;;
50683;SDS011;36654;45.042;38.994;2024-03-25T01:28:06;12.85;;;8.23;;
50683;SDS011;36654;45.042;38.994;2024-03-25T01:30:32;15.07;;;8.35;;
50683;SDS011;36654;45.042;38.994;2024-03-25T01:33:00;13.88;;;8.18;;
50683;SDS011;36654;45.042;38.994;2024-03-25T01:35:27;11.90;;;8.25;;
50683;SDS011;36654;45.042;38.994;2024-03-25T01:37:53;12.43;;;7.70;;
50683;SDS011;36654;45.042;38.994;2024-03-25T01:40:19;12.05;;;7.50;;
50683;SDS011;36654;45.042;38.994;2024-03-25T01:42:54;14.88;;;7.22;;
50683;SDS011;36654;45.042;38.994;2024-03-25T01:45:27;12.30;;;7.00;;
50683;SDS011;36654;45.042;38.994;2024-03-25T01:47:59;11.90;;;7.22;;
50683;SDS011;36654;45.042;38.994;2024-03-25T01:50:28;10.73;;;6.85;;
50683;SDS011;36654;45.042;38.994;2024-03-25T01:52:54;9.82;;;6.40;;
50683;SDS011;36654;45.042;38.994;2024-03-25T01:55:22;12.02;;;7.47;;
50683;SDS011;36654;45.042;38.994;2024-03-25T01:57:51;12.02;;;7.22;;
50683;SDS011;36654;45.042;38.994;2024-03-25T02:00:18;10.55;;;6.40;;
50683;SDS011;36654;45.042;38.994;2024-03-25T02:02:45;11.48;;;6.00;;
50683;SDS011;36654;45.042;38.994;2024-03-25T02:05:12;10.02;;;6.78;;
50683;SDS011;36654;45.042;38.994;2024-03-25T02:07:39;10.50;;;5.90;;
50683;SDS011;36654;45.042;38.994;2024-03-25T02:10:07;11.75;;;6.10;;
50683;SDS011;36654;45.042;38.994;2024-03-25T02:12:40;9.98;;;6.28;;
50683;SDS011;36654;45.042;38.994;2024-03-25T02:15:07;9.63;;;6.35;;
50683;SDS011;36654;45.042;38.994;2024-03-25T02:17:35;9.82;;;6.28;;
50683;SDS011;36654;45.042;38.994;2024-03-25T02:20:04;11.80;;;7.00;;
50683;SDS011;36654;45.042;38.994;2024-03-25T02:22:31;10.90;;;6.75;;
50683;SDS011;36654;45.042;38.994;2024-03-25T02:24:58;12.40;;;6.20;;
50683;SDS011;36654;45.042;38.994;2024-03-25T02:27:26;12.70;;;6.97;;
50683;SDS011;36654;45.042;38.994;2024-03-25T02:30:06;11.07;;;5.45;;
50683;SDS011;36654;45.042;38.994;2024-03-25T02:32:39;12.80;;;6.80;;
50683;SDS011;36654;45.042;38.994;2024-03-25T02:35:06;11.88;;;7.10;;
50683;SDS011;36654;45.042;38.994;2024-03-25T02:37:35;10.35;;;6.53;;
50683;SDS011;36654;45.042;38.994;2024-03-25T02:40:04;9.98;;;6.07;;
50683;SDS011;36654;45.042;38.994;2024-03-25T02:42:32;12.02;;;5.53;;
50683;SDS011;36654;45.042;38.994;2024-03-25T02:44:58;12.32;;;6.90;;
50683;SDS011;36654;45.042;38.994;2024-03-25T02:47:25;14.57;;;6.88;;
50683;SDS011;36654;45.042;38.994;2024-03-25T02:49:51;12.05;;;6.60;;
50683;SDS011;36654;45.042;38.994;2024-03-25T02:52:20;10.63;;;6.00;;
50683;SDS011;36654;45.042;38.994;2024-03-25T02:54:46;13.45;;;7.38;;
50683;SDS011;36654;45.042;38.994;2024-03-25T02:57:11;13.40;;;6.32;;
50683;SDS011;36654;45.042;38.994;2024-03-25T02:59:41;11.93;;;6.70;;
50683;SDS011;36654;45.042;38.994;2024-03-25T03:02:07;10.90;;;6.43;;
50683;SDS011;36654;45.042;38.994;2024-03-25T03:04:32;8.45;;;5.82;;
50683;SDS011;36654;45.042;38.994;2024-03-25T03:06:58;11.10;;;5.93;;
50683;SDS011;36654;45.042;38.994;2024-03-25T03:09:24;10.00;;;6.15;;
50683;SDS011;36654;45.042;38.994;2024-03-25T03:11:49;11.80;;;7.05;;
50683;SDS011;36654;45.042;38.994;2024-03-25T03:14:16;10.73;;;6.38;;
50683;SDS011;36654;45.042;38.994;2024-03-25T03:16:42;10.88;;;6.38;;
50683;SDS011;36654;45.042;38.994;2024-03-25T03:19:08;11.48;;;5.95;;
50683;SDS011;36654;45.042;38.994;2024-03-25T03:21:33;11.63;;;5.68;;
50683;SDS011;36654;45.042;38.994;2024-03-25T03:23:59;9.80;;;5.88;;
50683;SDS011;36654;45.042;38.994;2024-03-25T03:26:25;10.07;;;5.57;;
50683;SDS011;36654;45.042;38.994;2024-03-25T03:28:54;9.63;;;5.88;;
50683;SDS011;36654;45.042;38.994;2024-03-25T03:31:20;9.98;;;5.38;;
50683;SDS011;36654;45.042;38.994;2024-03-25T03:33:47;8.57;;;5.43;;
50683;SDS011;36654;45.042;38.994;2024-03-25T03:36:15;12.88;;;5.63;;
50683;SDS011;36654;45.042;38.994;2024-03-25T03:38:42;8.40;;;5.43;;
50683;SDS011;36654;45.042;38.994;2024-03-25T03:41:08;9.35;;;5.55;;
50683;SDS011;36654;45.042;38.994;2024-03-25T03:43:33;9.68;;;5.30;;
50683;SDS011;36654;45.042;38.994;2024-03-25T03:45:59;12.07;;;6.80;;
50683;SDS011;36654;45.042;38.994;2024-03-25T03:48:26;7.22;;;5.35;;
50683;SDS011;36654;45.042;38.994;2024-03-25T03:50:52;11.23;;;6.47;;
50683;SDS011;36654;45.042;38.994;2024-03-25T03:53:18;10.25;;;6.20;;
50683;SDS011;36654;45.042;38.994;2024-03-25T03:56:05;11.25;;;5.93;;
50683;SDS011;36654;45.042;38.994;2024-03-25T03:58:30;10.40;;;5.45;;
50683;SDS011;36654;45.042;38.994;2024-03-25T04:00:57;8.80;;;5.85;;
50683;SDS011;36654;45.042;38.994;2024-03-25T04:03:23;10.48;;;5.25;;
50683;SDS011;36654;45.042;38.994;2024-03-25T04:05:49;9.48;;;5.50;;
50683;SDS011;36654;45.042;38.994;2024-03-25T04:08:15;11.13;;;5.95;;
50683;SDS011;36654;45.042;38.994;2024-03-25T04:10:42;15.45;;;6.07;;
50683;SDS011;36654;45.042;38.994;2024-03-25T04:13:08;9.55;;;5.82;;
50683;SDS011;36654;45.042;38.994;2024-03-25T04:15:34;15.38;;;6.57;;
50683;SDS011;36654;45.042;38.994;2024-03-25T04:18:03;12.15;;;6.72;;
50683;SDS011;36654;45.042;38.994;2024-03-25T04:20:29;10.50;;;5.85;;
50683;SDS011;36654;45.042;38.994;2024-03-25T04:23:02;12.10;;;6.00;;
50683;SDS011;36654;45.042;38.994;2024-03-25T04:25:28;11.80;;;5.85;;
50683;SDS011;36654;45.042;38.994;2024-03-25T04:27:53;15.18;;;6.00;;
50683;SDS011;36654;45.042;38.994;2024-03-25T04:30:19;9.82;;;5.63;;
50683;SDS011;36654;45.042;38.994;2024-03-25T04:32:45;10.48;;;5.70;;
50683;SDS011;36654;45.042;38.994;2024-03-25T04:35:10;8.10;;;5.22;;
50683;SDS011;36654;45.042;38.994;2024-03-25T04:37:36;9.90;;;5.88;;
50683;SDS011;36654;45.042;38.994;2024-03-25T04:40:02;10.75;;;6.50;;
50683;SDS011;36654;45.042;38.994;2024-03-25T04:42:28;10.65;;;6.20;;
50683;SDS011;36654;45.042;38.994;2024-03-25T04:44:54;9.90;;;5.97;;
50683;SDS011;36654;45.042;38.994;2024-03-25T04:47:19;10.85;;;5.72;;
50683;SDS011;36654;45.042;38.994;2024-03-25T04:49:46;9.98;;;5.75;;
50683;SDS011;36654;45.042;38.994;2024-03-25T04:52:11;15.73;;;5.97;;
50683;SDS011;36654;45.042;38.994;2024-03-25T04:54:42;10.20;;;5.38;;
50683;SDS011;36654;45.042;38.994;2024-03-25T04:59:36;9.88;;;5.53;;
50683;SDS011;36654;45.042;38.994;2024-03-25T05:02:01;8.65;;;4.93;;
50683;SDS011;36654;45.042;38.994;2024-03-25T05:04:27;8.75;;;5.38;;
50683;SDS011;36654;45.042;38.994;2024-03-25T05:06:53;7.97;;;4.72;;
50683;SDS011;36654;45.042;38.994;2024-03-25T05:09:19;9.98;;;5.63;;
50683;SDS011;36654;45.042;38.994;2024-03-25T05:11:46;9.70;;;5.35;;
50683;SDS011;36654;45.042;38.994;2024-03-25T05:14:11;10.32;;;5.72;;
50683;SDS011;36654;45.042;38.994;2024-03-25T05:16:38;11.52;;;6.10;;
50683;SDS011;36654;45.042;38.994;2024-03-25T05:19:04;8.57;;;5.22;;
50683;SDS011;36654;45.042;38.994;2024-03-25T05:21:30;11.80;;;5.50;;
50683;SDS011;36654;45.042;38.994;2024-03-25T05:24:00;7.60;;;4.93;;
50683;SDS011;36654;45.042;38.994;2024-03-25T05:26:26;9.35;;;5.18;;
50683;SDS011;36654;45.042;38.994;2024-03-25T05:28:56;9.32;;;6.38;;
50683;SDS011;36654;45.042;38.994;2024-03-25T05:31:24;9.27;;;4.68;;
50683;SDS011;36654;45.042;38.994;2024-03-25T05:33:50;11.40;;;5.07;;
50683;SDS011;36654;45.042;38.994;2024-03-25T05:36:16;8.95;;;5.25;;
50683;SDS011;36654;45.042;38.994;2024-03-25T05:38:42;8.70;;;4.95;;
50683;SDS011;36654;45.042;38.994;2024-03-25T05:41:08;9.57;;;5.80;;
50683;SDS011;36654;45.042;38.994;2024-03-25T05:43:35;7.38;;;4.63;;
50683;SDS011;36654;45.042;38.994;2024-03-25T05:46:00;7.47;;;4.20;;
50683;SDS011;36654;45.042;38.994;2024-03-25T05:48:26;8.75;;;4.57;;
50683;SDS011;36654;45.042;38.994;2024-03-25T05:51:02;8.63;;;5.05;;
50683;SDS011;36654;45.042;38.994;2024-03-25T05:53:31;12.32;;;6.70;;
50683;SDS011;36654;45.042;38.994;2024-03-25T05:55:57;12.73;;;8.20;;
50683;SDS011;36654;45.042;38.994;2024-03-25T05:58:26;9.45;;;6.80;;
50683;SDS011;36654;45.042;38.994;2024-03-25T06:00:52;13.15;;;7.88;;
50683;SDS011;36654;45.042;38.994;2024-03-25T06:03:19;14.75;;;9.07;;
50683;SDS011;36654;45.042;38.994;2024-03-25T06:05:45;10.25;;;5.35;;
50683;SDS011;36654;45.042;38.994;2024-03-25T06:08:11;8.68;;;5.97;;
50683;SDS011;36654;45.042;38.994;2024-03-25T06:10:52;8.73;;;5.30;;
50683;SDS011;36654;45.042;38.994;2024-03-25T06:13:18;12.90;;;5.07;;
50683;SDS011;36654;45.042;38.994;2024-03-25T06:15:45;14.73;;;6.53;;
50683;SDS011;36654;45.042;38.994;2024-03-25T06:18:13;16.38;;;5.15;;
50683;SDS011;36654;45.042;38.994;2024-03-25T06:20:39;6.57;;;4.65;;
50683;SDS011;36654;45.042;38.994;2024-03-25T06:23:04;9.57;;;5.60;;
50683;SDS011;36654;45.042;38.994;2024-03-25T06:25:32;11.45;;;5.75;;
50683;SDS011;36654;45.042;38.994;2024-03-25T06:27:58;6.70;;;5.05;;
50683;SDS011;36654;45.042;38.994;2024-03-25T06:30:24;9.23;;;6.10;;
50683;SDS011;36654;45.042;38.994;2024-03-25T06:33:08;9.40;;;5.55;;
50683;SDS011;36654;45.042;38.994;2024-03-25T06:35:52;8.98;;;6.10;;
50683;SDS011;36654;45.042;38.994;2024-03-25T06:38:19;9.48;;;5.65;;
50683;SDS011;36654;45.042;38.994;2024-03-25T06:40:44;7.93;;;5.20;;
50683;SDS011;36654;45.042;38.994;2024-03-25T06:43:10;11.27;;;4.85;;
50683;SDS011;36654;45.042;38.994;2024-03-25T06:45:36;10.23;;;6.13;;
50683;SDS011;36654;45.042;38.994;2024-03-25T06:48:02;8.25;;;5.50;;
50683;SDS011;36654;45.042;38.994;2024-03-25T06:50:28;10.52;;;6.03;;
50683;SDS011;36654;45.042;38.994;2024-03-25T06:52:54;9.00;;;5.70;;
50683;SDS011;36654;45.042;38.994;2024-03-25T06:55:19;13.18;;;5.57;;
50683;SDS011;36654;45.042;38.994;2024-03-25T06:57:48;10.13;;;5.93;;
50683;SDS011;36654;45.042;38.994;2024-03-25T07:00:14;15.48;;;5.90;;
50683;SDS011;36654;45.042;38.994;2024-03-25T07:02:40;10.60;;;6.47;;
50683;SDS011;36654;45.042;38.994;2024-03-25T07:05:06;13.07;;;6.85;;
50683;SDS011;36654;45.042;38.994;2024-03-25T07:07:32;12.98;;;6.15;;
50683;SDS011;36654;45.042;38.994;2024-03-25T07:09:59;11.82;;;5.72;;
50683;SDS011;36654;45.042;38.994;2024-03-25T07:12:25;13.35;;;6.35;;
50683;SDS011;36654;45.042;38.994;2024-03-25T07:14:51;11.82;;;6.38;;
50683;SDS011;36654;45.042;38.994;2024-03-25T07:17:17;11.27;;;6.25;;
50683;SDS011;36654;45.042;38.994;2024-03-25T07:19:43;12.45;;;6.65;;
50683;SDS011;36654;45.042;38.994;2024-03-25T07:22:10;11.65;;;6.63;;
50683;SDS011;36654;45.042;38.994;2024-03-25T07:24:36;11.45;;;6.22;;
50683;SDS011;36654;45.042;38.994;2024-03-25T07:27:01;10.52;;;6.10;;
50683;SDS011;36654;45.042;38.994;2024-03-25T07:29:27;8.20;;;5.43;;
50683;SDS011;36654;45.042;38.994;2024-03-25T07:31:53;8.40;;;5.88;;
50683;SDS011;36654;45.042;38.994;2024-03-25T07:34:20;8.50;;;5.20;;
50683;SDS011;36654;45.042;38.994;2024-03-25T07:36:46;7.35;;;5.63;;
50683;SDS011;36654;45.042;38.994;2024-03-25T07:39:14;6.20;;;4.68;;
50683;SDS011;36654;45.042;38.994;2024-03-25T07:41:41;8.70;;;5.07;;
50683;SDS011;36654;45.042;38.994;2024-03-25T07:44:07;9.57;;;4.68;;
50683;SDS011;36654;45.042;38.994;2024-03-25T07:46:34;12.60;;;4.90;;
50683;SDS011;36654;45.042;38.994;2024-03-25T07:49:00;8.55;;;5.03;;
50683;SDS011;36654;45.042;38.994;2024-03-25T07:51:26;7.18;;;4.43;;
50683;SDS011;36654;45.042;38.994;2024-03-25T07:53:52;7.10;;;4.85;;
50683;SDS011;36654;45.042;38.994;2024-03-25T07:56:17;7.32;;;5.00;;
50683;SDS011;36654;45.042;38.994;2024-03-25T07:58:44;6.95;;;4.22;;
50683;SDS011;36654;45.042;38.994;2024-03-25T08:01:10;7.25;;;4.63;;
50683;SDS011;36654;45.042;38.994;2024-03-25T08:03:35;7.35;;;4.47;;
50683;SDS011;36654;45.042;38.994;2024-03-25T08:06:02;6.03;;;4.75;;
50683;SDS011;36654;45.042;38.994;2024-03-25T08:08:28;9.63;;;4.95;;
50683;SDS011;36654;45.042;38.994;2024-03-25T08:10:54;5.85;;;4.20;;
50683;SDS011;36654;45.042;38.994;2024-03-25T08:13:21;6.20;;;4.25;;
50683;SDS011;36654;45.042;38.994;2024-03-25T08:15:47;8.82;;;5.10;;
50683;SDS011;36654;45.042;38.994;2024-03-25T08:18:13;9.82;;;5.60;;
50683;SDS011;36654;45.042;38.994;2024-03-25T08:20:39;9.20;;;5.20;;
50683;SDS011;36654;45.042;38.994;2024-03-25T08:23:04;6.50;;;4.88;;
50683;SDS011;36654;45.042;38.994;2024-03-25T08:25:30;9.35;;;4.90;;
50683;SDS011;36654;45.042;38.994;2024-03-25T08:27:59;6.32;;;4.20;;
50683;SDS011;36654;45.042;38.994;2024-03-25T08:30:26;7.60;;;4.50;;
50683;SDS011;36654;45.042;38.994;2024-03-25T08:32:52;9.32;;;5.05;;
50683;SDS011;36654;45.042;38.994;2024-03-25T08:35:17;7.20;;;4.10;;
50683;SDS011;36654;45.042;38.994;2024-03-25T08:37:43;6.93;;;4.15;;
50683;SDS011;36654;45.042;38.994;2024-03-25T08:40:09;7.03;;;4.20;;
50683;SDS011;36654;45.042;38.994;2024-03-25T08:42:36;7.40;;;4.70;;
50683;SDS011;36654;45.042;38.994;2024-03-25T08:45:02;6.68;;;3.70;;
50683;SDS011;36654;45.042;38.994;2024-03-25T08:47:31;7.07;;;3.92;;
50683;SDS011;36654;45.042;38.994;2024-03-25T08:49:58;6.78;;;3.00;;
50683;SDS011;36654;45.042;38.994;2024-03-25T08:52:24;4.60;;;3.50;;
50683;SDS011;36654;45.042;38.994;2024-03-25T08:54:51;8.60;;;3.90;;
50683;SDS011;36654;45.042;38.994;2024-03-25T08:57:16;7.20;;;4.13;;
50683;SDS011;36654;45.042;38.994;2024-03-25T08:59:43;9.70;;;3.47;;
50683;SDS011;36654;45.042;38.994;2024-03-25T09:02:10;5.55;;;2.80;;
50683;SDS011;36654;45.042;38.994;2024-03-25T09:04:36;3.67;;;2.60;;
50683;SDS011;36654;45.042;38.994;2024-03-25T09:07:01;4.88;;;2.97;;
50683;SDS011;36654;45.042;38.994;2024-03-25T09:09:28;4.85;;;3.53;;
50683;SDS011;36654;45.042;38.994;2024-03-25T09:12:12;4.93;;;3.00;;
50683;SDS011;36654;45.042;38.994;2024-03-25T09:14:37;3.58;;;2.92;;
50683;SDS011;36654;45.042;38.994;2024-03-25T09:17:03;6.28;;;2.88;;
50683;SDS011;36654;45.042;38.994;2024-03-25T09:19:29;3.17;;;2.80;;
50683;SDS011;36654;45.042;38.994;2024-03-25T09:21:55;4.82;;;3.10;;
50683;SDS011;36654;45.042;38.994;2024-03-25T09:24:21;6.78;;;2.85;;
50683;SDS011;36654;45.042;38.994;2024-03-25T09:26:51;4.07;;;2.58;;
50683;SDS011;36654;45.042;38.994;2024-03-25T09:29:17;4.78;;;2.55;;
50683;SDS011;36654;45.042;38.994;2024-03-25T09:31:42;7.13;;;2.58;;
50683;SDS011;36654;45.042;38.994;2024-03-25T09:34:08;7.85;;;2.78;;
50683;SDS011;36654;45.042;38.994;2024-03-25T09:36:34;2.70;;;2.28;;
50683;SDS011;36654;45.042;38.994;2024-03-25T09:38:59;2.80;;;2.20;;
50683;SDS011;36654;45.042;38.994;2024-03-25T09:41:25;2.75;;;1.98;;
50683;SDS011;36654;45.042;38.994;2024-03-25T09:43:55;2.70;;;1.90;;
50683;SDS011;36654;45.042;38.994;2024-03-25T09:46:25;2.95;;;1.98;;
50683;SDS011;36654;45.042;38.994;2024-03-25T09:48:54;2.10;;;1.90;;
50683;SDS011;36654;45.042;38.994;2024-03-25T09:51:21;1.80;;;1.70;;
50683;SDS011;36654;45.042;38.994;2024-03-25T09:53:47;1.77;;;1.67;;
50683;SDS011;36654;45.042;38.994;2024-03-25T09:56:13;3.05;;;1.85;;
50683;SDS011;36654;45.042;38.994;2024-03-25T09:58:40;1.42;;;1.33;;
50683;SDS011;36654;45.042;38.994;2024-03-25T10:01:09;1.63;;;1.23;;
50683;SDS011;36654;45.042;38.994;2024-03-25T10:03:35;3.40;;;2.05;;
50683;SDS011;36654;45.042;38.994;2024-03-25T10:06:01;1.52;;;1.23;;
50683;SDS011;36654;45.042;38.994;2024-03-25T10:08:27;1.23;;;1.13;;
50683;SDS011;36654;45.042;38.994;2024-03-25T10:10:56;1.55;;;1.27;;
50683;SDS011;36654;45.042;38.994;2024-03-25T10:13:22;2.22;;;1.40;;
50683;SDS011;36654;45.042;38.994;2024-03-25T10:15:49;2.22;;;1.70;;
50683;SDS011;36654;45.042;38.994;2024-03-25T10:18:15;2.30;;;1.73;;
50683;SDS011;36654;45.042;38.994;2024-03-25T10:20:51;3.30;;;1.70;;
50683;SDS011;36654;45.042;38.994;2024-03-25T10:23:22;2.35;;;1.80;;
50683;SDS011;36654;45.042;38.994;2024-03-25T10:25:48;2.55;;;1.15;;
50683;SDS011;36654;45.042;38.994;2024-03-25T10:28:16;1.70;;;1.48;;
50683;SDS011;36654;45.042;38.994;2024-03-25T10:30:42;0.95;;;0.95;;
50683;SDS011;36654;45.042;38.994;2024-03-25T10:33:08;8.52;;;1.17;;
50683;SDS011;36654;45.042;38.994;2024-03-25T10:35:34;0.98;;;0.93;;
50683;SDS011;36654;45.042;38.994;2024-03-25T10:38:02;1.10;;;1.10;;
50683;SDS011;36654;45.042;38.994;2024-03-25T10:40:32;4.93;;;1.25;;
50683;SDS011;36654;45.042;38.994;2024-03-25T10:43:03;1.73;;;1.10;;
50683;SDS011;36654;45.042;38.994;2024-03-25T10:45:44;1.40;;;1.30;;
50683;SDS011;36654;45.042;38.994;2024-03-25T10:48:18;2.17;;;1.15;;
50683;SDS011;36654;45.042;38.994;2024-03-25T10:50:46;4.57;;;1.40;;
50683;SDS011;36654;45.042;38.994;2024-03-25T10:53:14;0.98;;;0.98;;
50683;SDS011;36654;45.042;38.994;2024-03-25T10:55:46;1.15;;;1.05;;
50683;SDS011;36654;45.042;38.994;2024-03-25T10:58:16;1.38;;;0.98;;
50683;SDS011;36654;45.042;38.994;2024-03-25T11:00:44;1.95;;;1.17;;
50683;SDS011;36654;45.042;38.994;2024-03-25T11:03:11;1.23;;;1.08;;
50683;SDS011;36654;45.042;38.994;2024-03-25T11:05:37;1.55;;;1.20;;
50683;SDS011;36654;45.042;38.994;2024-03-25T11:08:13;1.88;;;1.27;;
50683;SDS011;36654;45.042;38.994;2024-03-25T11:10:40;2.45;;;1.30;;
50683;SDS011;36654;45.042;38.994;2024-03-25T11:13:12;2.20;;;2.00;;
50683;SDS011;36654;45.042;38.994;2024-03-25T11:15:43;3.70;;;1.48;;
50683;SDS011;36654;45.042;38.994;2024-03-25T11:18:13;2.10;;;1.10;;
50683;SDS011;36654;45.042;38.994;2024-03-25T11:20:40;2.15;;;1.40;;
50683;SDS011;36654;45.042;38.994;2024-03-25T11:23:12;2.55;;;1.35;;
50683;SDS011;36654;45.042;38.994;2024-03-25T11:25:40;1.02;;;1.00;;
50683;SDS011;36654;45.042;38.994;2024-03-25T11:28:06;1.33;;;1.30;;
50683;SDS011;36654;45.042;38.994;2024-03-25T11:30:33;1.77;;;1.50;;
50683;SDS011;36654;45.042;38.994;2024-03-25T11:33:01;1.95;;;1.60;;
50683;SDS011;36654;45.042;38.994;2024-03-25T11:35:27;2.05;;;1.40;;
50683;SDS011;36654;45.042;38.994;2024-03-25T11:37:53;1.48;;;1.38;;
50683;SDS011;36654;45.042;38.994;2024-03-25T11:40:19;1.75;;;1.30;;
50683;SDS011;36654;45.042;38.994;2024-03-25T11:42:45;1.00;;;1.00;;
50683;SDS011;36654;45.042;38.994;2024-03-25T11:45:13;1.98;;;1.52;;
50683;SDS011;36654;45.042;38.994;2024-03-25T11:47:46;1.30;;;1.20;;
50683;SDS011;36654;45.042;38.994;2024-03-25T11:50:14;1.52;;;1.42;;
50683;SDS011;36654;45.042;38.994;2024-03-25T11:52:42;1.90;;;1.50;;
50683;SDS011;36654;45.042;38.994;2024-03-25T11:55:08;2.47;;;1.90;;
50683;SDS011;36654;45.042;38.994;2024-03-25T11:57:35;1.77;;;1.65;;
50683;SDS011;36654;45.042;38.994;2024-03-25T12:00:01;6.10;;;1.70;;
50683;SDS011;36654;45.042;38.994;2024-03-25T12:02:31;3.22;;;1.88;;
50683;SDS011;36654;45.042;38.994;2024-03-25T12:04:57;2.25;;;1.60;;
50683;SDS011;36654;45.042;38.994;2024-03-25T12:07:23;2.50;;;1.80;;
50683;SDS011;36654;45.042;38.994;2024-03-25T12:09:49;1.08;;;1.08;;
50683;SDS011;36654;45.042;38.994;2024-03-25T12:12:33;5.40;;;1.88;;
50683;SDS011;36654;45.042;38.994;2024-03-25T12:15:04;1.08;;;1.08;;
50683;SDS011;36654;45.042;38.994;2024-03-25T12:17:32;1.77;;;1.38;;
50683;SDS011;36654;45.042;38.994;2024-03-25T12:22:33;1.40;;;1.27;;
50683;SDS011;36654;45.042;38.994;2024-03-25T12:25:00;2.45;;;1.75;;
50683;SDS011;36654;45.042;38.994;2024-03-25T12:27:31;1.90;;;1.52;;
50683;SDS011;36654;45.042;38.994;2024-03-25T12:30:01;2.85;;;1.40;;
50683;SDS011;36654;45.042;38.994;2024-03-25T12:32:31;1.73;;;1.63;;
50683;SDS011;36654;45.042;38.994;2024-03-25T12:35:01;2.47;;;1.60;;
50683;SDS011;36654;45.042;38.994;2024-03-25T12:37:26;3.70;;;2.00;;
50683;SDS011;36654;45.042;38.994;2024-03-25T12:39:52;1.60;;;1.38;;
50683;SDS011;36654;45.042;38.994;2024-03-25T12:42:18;2.13;;;1.40;;
50683;SDS011;36654;45.042;38.994;2024-03-25T12:44:44;2.17;;;1.60;;
50683;SDS011;36654;45.042;38.994;2024-03-25T12:47:10;1.20;;;1.10;;
50683;SDS011;36654;45.042;38.994;2024-03-25T12:49:36;3.08;;;1.35;;
50683;SDS011;36654;45.042;38.994;2024-03-25T12:52:04;2.10;;;1.15;;
50683;SDS011;36654;45.042;38.994;2024-03-25T12:54:31;1.75;;;1.45;;
50683;SDS011;36654;45.042;38.994;2024-03-25T12:56:58;1.70;;;1.60;;
50683;SDS011;36654;45.042;38.994;2024-03-25T12:59:24;1.35;;;1.25;;
50683;SDS011;36654;45.042;38.994;2024-03-25T13:01:49;2.53;;;1.38;;
50683;SDS011;36654;45.042;38.994;2024-03-25T13:04:16;1.83;;;1.65;;
50683;SDS011;36654;45.042;38.994;2024-03-25T13:06:42;2.35;;;1.58;;
50683;SDS011;36654;45.042;38.994;2024-03-25T13:09:08;3.35;;;1.88;;
50683;SDS011;36654;45.042;38.994;2024-03-25T13:11:33;1.58;;;1.45;;
50683;SDS011;36654;45.042;38.994;2024-03-25T13:14:00;2.40;;;1.60;;
50683;SDS011;36654;45.042;38.994;2024-03-25T13:16:25;2.55;;;1.58;;
50683;SDS011;36654;45.042;38.994;2024-03-25T13:18:51;1.63;;;1.52;;
50683;SDS011;36654;45.042;38.994;2024-03-25T13:21:17;2.78;;;1.40;;
50683;SDS011;36654;45.042;38.994;2024-03-25T13:23:42;1.88;;;1.50;;
50683;SDS011;36654;45.042;38.994;2024-03-25T13:26:08;2.08;;;1.80;;
50683;SDS011;36654;45.042;38.994;2024-03-25T13:28:34;3.38;;;1.80;;
50683;SDS011;36654;45.042;38.994;2024-03-25T13:30:59;2.95;;;1.67;;
50683;SDS011;36654;45.042;38.994;2024-03-25T13:33:25;1.67;;;1.58;;
50683;SDS011;36654;45.042;38.994;2024-03-25T13:35:51;3.03;;;1.60;;
50683;SDS011;36654;45.042;38.994;2024-03-25T13:38:16;3.22;;;1.67;;
50683;SDS011;36654;45.042;38.994;2024-03-25T13:40:42;2.83;;;1.63;;
50683;SDS011;36654;45.042;38.994;2024-03-25T13:43:08;2.53;;;2.20;;
50683;SDS011;36654;45.042;38.994;2024-03-25T13:45:34;3.30;;;1.90;;
50683;SDS011;36654;45.042;38.994;2024-03-25T13:48:00;2.22;;;2.00;;
50683;SDS011;36654;45.042;38.994;2024-03-25T13:50:26;5.13;;;2.50;;
50683;SDS011;36654;45.042;38.994;2024-03-25T13:52:51;4.28;;;2.28;;
50683;SDS011;36654;45.042;38.994;2024-03-25T13:55:17;2.13;;;1.95;;
50683;SDS011;36654;45.042;38.994;2024-03-25T13:57:44;2.40;;;1.65;;
50683;SDS011;36654;45.042;38.994;2024-03-25T14:00:09;2.35;;;1.70;;
50683;SDS011;36654;45.042;38.994;2024-03-25T14:02:36;2.72;;;1.85;;
50683;SDS011;36654;45.042;38.994;2024-03-25T14:05:04;3.20;;;1.75;;
50683;SDS011;36654;45.042;38.994;2024-03-25T14:07:30;3.58;;;2.33;;
50683;SDS011;36654;45.042;38.994;2024-03-25T14:09:55;3.88;;;3.20;;
50683;SDS011;36654;45.042;38.994;2024-03-25T14:12:21;2.08;;;1.98;;
50683;SDS011;36654;45.042;38.994;2024-03-25T14:14:48;2.10;;;1.90;;
50683;SDS011;36654;45.042;38.994;2024-03-25T14:17:14;3.65;;;2.85;;
50683;SDS011;36654;45.042;38.994;2024-03-25T14:19:40;5.18;;;3.55;;
50683;SDS011;36654;45.042;38.994;2024-03-25T14:22:05;4.40;;;2.22;;
50683;SDS011;36654;45.042;38.994;2024-03-25T14:24:31;2.65;;;2.00;;
50683;SDS011;36654;45.042;38.994;2024-03-25T14:26:58;2.45;;;2.03;;
50683;SDS011;36654;45.042;38.994;2024-03-25T14:29:23;4.05;;;2.10;;
50683;SDS011;36654;45.042;38.994;2024-03-25T14:31:49;2.70;;;2.08;;
50683;SDS011;36654;45.042;38.994;2024-03-25T14:34:15;2.17;;;1.98;;